Time;durP1;ratioP1;P1;durP2;ratioP2;P2;SDS_P1;SDS_P2;PMS_P1;PMS_P2;Temp;Humidity;BMP_temperature;BMP_pressure;BME280_temperature;BME280_humidity;BME280_pressure;Samples;Min_cycle;Max_cycle;Signal;HPM_P1;HPM_P2
2023/04/26 00:02:15;;;;;;;1.97;1.70;;;;;;;;;;5052983;28;21220;-54
2023/04/26 00:04:41;;;;;;;3.40;2.20;;;;;;;;;;5053209;28;20426;-55
2023/04/26 00:07:08;;;;;;;4.17;1.70;;;;;;;;;;5055801;28;20699;-55
2023/04/26 00:09:34;;;;;;;2.30;2.03;;;;;;;;;;5054704;28;20184;-53
2023/04/26 00:12:00;;;;;;;3.37;1.90;;;;;;;;;;5053466;28;20567;-53
2023/04/26 00:14:26;;;;;;;2.23;1.87;;;;;;;;;;5054344;28;20185;-54
2023/04/26 00:16:52;;;;;;;2.63;2.27;;;;;;;;;;5054892;28;20269;-54
2023/04/26 00:19:20;;;;;;;3.73;1.70;;;;;;;;;;5054162;28;20238;-55
2023/04/26 00:21:46;;;;;;;2.47;2.27;;;;;;;;;;5052956;28;20172;-54
2023/04/26 00:24:12;;;;;;;2.17;1.70;;;;;;;;;;5055082;28;20228;-55
2023/04/26 00:26:38;;;;;;;2.27;2.00;;;;;;;;;;5055687;28;20663;-54
2023/04/26 00:29:04;;;;;;;4.27;2.57;;;;;;;;;;5053486;28;20916;-54
2023/04/26 00:31:30;;;;;;;2.77;1.93;;;;;;;;;;5054750;28;20192;-54
2023/04/26 00:33:57;;;;;;;3.20;2.03;;;;;;;;;;5056893;28;20633;-53
2023/04/26 00:36:23;;;;;;;3.47;2.50;;;;;;;;;;5052545;28;20806;-54
2023/04/26 00:38:49;;;;;;;3.53;2.40;;;;;;;;;;5054832;28;20299;-54
2023/04/26 00:41:15;;;;;;;2.50;1.80;;;;;;;;;;5054290;28;20180;-54
2023/04/26 00:43:41;;;;;;;4.67;2.30;;;;;;;;;;5054847;28;20196;-54
2023/04/26 00:46:08;;;;;;;2.60;2.03;;;;;;;;;;5054720;28;20177;-54
2023/04/26 00:48:36;;;;;;;2.23;1.77;;;;;;;;;;5051884;28;20188;-54
2023/04/26 00:51:03;;;;;;;3.47;2.20;;;;;;;;;;5053230;28;20196;-54
2023/04/26 00:53:30;;;;;;;3.10;2.27;;;;;;;;;;5054733;28;21292;-54
2023/04/26 00:55:56;;;;;;;3.67;2.17;;;;;;;;;;5054436;28;21571;-54
2023/04/26 00:58:22;;;;;;;3.33;2.30;;;;;;;;;;5053358;28;20196;-54
2023/04/26 01:00:49;;;;;;;4.10;2.57;;;;;;;;;;5055201;28;20183;-54
2023/04/26 01:03:16;;;;;;;3.33;2.23;;;;;;;;;;5054910;28;20177;-54
2023/04/26 01:05:42;;;;;;;4.00;2.20;;;;;;;;;;5052424;28;20179;-54
2023/04/26 01:08:08;;;;;;;5.53;2.40;;;;;;;;;;5054034;28;20184;-54
2023/04/26 01:10:35;;;;;;;2.47;2.10;;;;;;;;;;5053642;28;20241;-54
2023/04/26 01:13:04;;;;;;;3.80;2.00;;;;;;;;;;5054086;28;20208;-54
2023/04/26 01:15:32;;;;;;;3.23;2.20;;;;;;;;;;5054528;28;20188;-54
2023/04/26 01:17:58;;;;;;;3.13;2.10;;;;;;;;;;5053241;28;20215;-54
2023/04/26 01:20:25;;;;;;;2.30;2.10;;;;;;;;;;5053096;28;20908;-54
2023/04/26 01:22:51;;;;;;;2.90;2.20;;;;;;;;;;5053553;28;20650;-54
2023/04/26 01:25:19;;;;;;;3.40;2.40;;;;;;;;;;5053306;28;20283;-54
2023/04/26 01:27:45;;;;;;;3.13;2.20;;;;;;;;;;5054003;28;20184;-54
2023/04/26 01:30:12;;;;;;;4.10;3.13;;;;;;;;;;5054328;28;20193;-54
2023/04/26 01:32:38;;;;;;;3.27;2.23;;;;;;;;;;5055990;28;20632;-54
2023/04/26 01:35:04;;;;;;;2.40;2.20;;;;;;;;;;5054333;28;20189;-54
2023/04/26 01:37:31;;;;;;;3.40;2.10;;;;;;;;;;5058637;28;20588;-54
2023/04/26 01:39:57;;;;;;;2.93;2.30;;;;;;;;;;5059429;28;20196;-54
2023/04/26 01:42:23;;;;;;;2.63;1.87;;;;;;;;;;5058280;28;20176;-54
2023/04/26 01:44:49;;;;;;;2.67;2.27;;;;;;;;;;5039368;28;20556;-54
2023/04/26 01:47:15;;;;;;;3.20;2.43;;;;;;;;;;5057619;28;20216;-54
2023/04/26 01:49:41;;;;;;;2.37;1.93;;;;;;;;;;5056299;28;20641;-54
2023/04/26 01:52:07;;;;;;;2.77;2.20;;;;;;;;;;5058046;28;20561;-54
2023/04/26 01:54:33;;;;;;;4.07;2.67;;;;;;;;;;5056223;28;20472;-54
2023/04/26 01:57:00;;;;;;;3.70;2.23;;;;;;;;;;5058573;28;20189;-53
2023/04/26 01:59:26;;;;;;;3.23;2.20;;;;;;;;;;5055755;28;20665;-54
2023/04/26 02:01:52;;;;;;;2.70;1.90;;;;;;;;;;5056951;28;20180;-54
2023/04/26 02:04:18;;;;;;;2.33;2.10;;;;;;;;;;5053719;28;20177;-54
2023/04/26 02:06:45;;;;;;;2.80;1.97;;;;;;;;;;5057005;28;20643;-54
2023/04/26 02:09:11;;;;;;;2.60;2.37;;;;;;;;;;5057570;28;20628;-54
2023/04/26 02:11:37;;;;;;;2.10;1.90;;;;;;;;;;5058833;28;20212;-54
2023/04/26 02:14:03;;;;;;;4.13;2.20;;;;;;;;;;5056842;28;20212;-54
2023/04/26 02:16:29;;;;;;;3.33;2.37;;;;;;;;;;5056269;28;20184;-54
2023/04/26 02:18:55;;;;;;;3.20;2.37;;;;;;;;;;5054524;28;20208;-54
2023/04/26 02:21:21;;;;;;;2.93;2.10;;;;;;;;;;5055021;28;20185;-54
2023/04/26 02:23:47;;;;;;;4.00;2.37;;;;;;;;;;5057360;28;20622;-54
2023/04/26 02:26:14;;;;;;;2.50;2.17;;;;;;;;;;5037515;28;20192;-54
2023/04/26 02:28:40;;;;;;;2.50;2.20;;;;;;;;;;5055279;28;20192;-54
2023/04/26 02:31:06;;;;;;;2.77;2.53;;;;;;;;;;5055542;28;20181;-54
2023/04/26 02:33:33;;;;;;;2.57;2.10;;;;;;;;;;5055427;28;20188;-54
2023/04/26 02:36:01;;;;;;;2.93;2.30;;;;;;;;;;5055443;28;20264;-54
2023/04/26 02:38:28;;;;;;;2.87;2.30;;;;;;;;;;5056824;28;20208;-54
2023/04/26 02:40:58;;;;;;;2.97;2.20;;;;;;;;;;5056267;28;20629;-54
2023/04/26 02:43:24;;;;;;;2.73;2.37;;;;;;;;;;5053948;28;20184;-54
2023/04/26 02:45:50;;;;;;;3.70;2.30;;;;;;;;;;5054160;28;20184;-54
2023/04/26 02:48:16;;;;;;;3.47;2.50;;;;;;;;;;5055979;28;20329;-54
2023/04/26 02:50:42;;;;;;;3.67;2.20;;;;;;;;;;5055781;28;20184;-54
2023/04/26 02:53:08;;;;;;;3.90;2.23;;;;;;;;;;5054321;28;20192;-53
2023/04/26 02:55:34;;;;;;;2.23;2.03;;;;;;;;;;5055553;28;20558;-54
2023/04/26 02:58:00;;;;;;;2.87;2.30;;;;;;;;;;5037733;28;20570;-55
2023/04/26 03:00:27;;;;;;;2.63;2.13;;;;;;;;;;5056532;28;20860;-54
2023/04/26 03:02:53;;;;;;;3.07;2.40;;;;;;;;;;5052317;28;20263;-54
2023/04/26 03:05:19;;;;;;;4.10;2.77;;;;;;;;;;5054096;28;20641;-54
2023/04/26 03:07:46;;;;;;;3.03;2.10;;;;;;;;;;5056340;28;20648;-54
2023/04/26 03:10:12;;;;;;;3.03;2.20;;;;;;;;;;5056542;28;20192;-54
2023/04/26 03:12:38;;;;;;;2.73;2.30;;;;;;;;;;5053648;28;20251;-54
2023/04/26 03:15:04;;;;;;;2.30;2.10;;;;;;;;;;5054789;28;20216;-54
2023/04/26 03:17:30;;;;;;;2.47;2.17;;;;;;;;;;5055804;28;20537;-54
2023/04/26 03:19:56;;;;;;;3.73;2.20;;;;;;;;;;5054757;28;21683;-54
2023/04/26 03:22:23;;;;;;;5.10;2.23;;;;;;;;;;5055231;28;20188;-54
2023/04/26 03:24:49;;;;;;;3.67;2.17;;;;;;;;;;5055463;28;20222;-54
2023/04/26 03:27:15;;;;;;;3.17;1.80;;;;;;;;;;5053984;28;20535;-54
2023/04/26 03:29:41;;;;;;;2.07;1.87;;;;;;;;;;5055851;28;20626;-54
2023/04/26 03:32:07;;;;;;;2.63;2.40;;;;;;;;;;5055226;28;20192;-54
2023/04/26 03:34:33;;;;;;;2.20;1.77;;;;;;;;;;5054481;28;20723;-54
2023/04/26 03:36:59;;;;;;;3.37;2.17;;;;;;;;;;5055076;28;20184;-54
2023/04/26 03:39:26;;;;;;;2.07;1.70;;;;;;;;;;5055184;28;20204;-54
2023/04/26 03:41:52;;;;;;;2.77;2.03;;;;;;;;;;5055436;28;20181;-54
2023/04/26 03:44:18;;;;;;;2.07;1.83;;;;;;;;;;5056797;28;20195;-54
2023/04/26 03:46:44;;;;;;;3.23;2.37;;;;;;;;;;5055958;28;20188;-54
2023/04/26 03:49:10;;;;;;;3.77;1.90;;;;;;;;;;5055043;28;20185;-54
2023/04/26 03:51:36;;;;;;;3.50;2.47;;;;;;;;;;5055129;28;20234;-54
2023/04/26 03:54:02;;;;;;;3.23;2.43;;;;;;;;;;5055596;28;20193;-54
2023/04/26 03:56:28;;;;;;;3.23;2.23;;;;;;;;;;5055203;28;20607;-54
2023/04/26 03:58:54;;;;;;;2.23;1.93;;;;;;;;;;5054645;28;20334;-54
2023/04/26 04:01:20;;;;;;;3.90;3.00;;;;;;;;;;5054815;28;20180;-54
2023/04/26 04:03:46;;;;;;;3.50;2.30;;;;;;;;;;5056342;28;20245;-54
2023/04/26 04:06:13;;;;;;;3.97;2.60;;;;;;;;;;5054179;28;20670;-54
2023/04/26 04:08:39;;;;;;;3.47;2.20;;;;;;;;;;5052383;28;20185;-54
2023/04/26 04:11:05;;;;;;;4.17;2.27;;;;;;;;;;5055760;28;20845;-54
2023/04/26 04:13:31;;;;;;;3.27;2.27;;;;;;;;;;5053093;28;21723;-54
2023/04/26 04:15:57;;;;;;;2.60;2.20;;;;;;;;;;5054726;28;20237;-55
2023/04/26 04:18:25;;;;;;;2.57;2.07;;;;;;;;;;5052764;28;20211;-55
2023/04/26 04:20:51;;;;;;;3.47;2.10;;;;;;;;;;5053799;28;20252;-55
2023/04/26 04:23:17;;;;;;;3.00;2.53;;;;;;;;;;5050034;28;20212;-55
2023/04/26 04:25:44;;;;;;;2.67;2.30;;;;;;;;;;5056663;28;20192;-55
2023/04/26 04:28:10;;;;;;;2.00;1.80;;;;;;;;;;5054516;28;20185;-55
2023/04/26 04:30:36;;;;;;;2.77;2.20;;;;;;;;;;5057434;28;20645;-55
2023/04/26 04:33:04;;;;;;;2.40;2.10;;;;;;;;;;5051032;28;20256;-55
2023/04/26 04:35:32;;;;;;;3.20;2.50;;;;;;;;;;5052030;28;20180;-55
2023/04/26 04:37:59;;;;;;;3.33;1.90;;;;;;;;;;5049954;28;20212;-54
2023/04/26 04:40:25;;;;;;;4.50;2.03;;;;;;;;;;5050711;28;20185;-54
2023/04/26 04:42:52;;;;;;;2.27;2.00;;;;;;;;;;5056689;28;20259;-54
2023/04/26 04:45:19;;;;;;;3.10;2.20;;;;;;;;;;5055823;28;20204;-55
2023/04/26 04:47:45;;;;;;;2.73;2.20;;;;;;;;;;5055861;28;20200;-55
2023/04/26 04:50:12;;;;;;;2.33;2.13;;;;;;;;;;5046796;28;20196;-55
2023/04/26 04:52:38;;;;;;;2.43;2.20;;;;;;;;;;5052870;28;20303;-54
2023/04/26 04:55:04;;;;;;;3.00;2.70;;;;;;;;;;5054710;28;20210;-54
2023/04/26 04:57:31;;;;;;;2.90;2.20;;;;;;;;;;5053462;28;20545;-54
2023/04/26 04:59:58;;;;;;;2.97;2.10;;;;;;;;;;5051395;28;20259;-54
2023/04/26 05:02:24;;;;;;;4.47;2.73;;;;;;;;;;5053742;28;20538;-55
2023/04/26 05:04:50;;;;;;;2.47;2.27;;;;;;;;;;5051731;28;20177;-54
2023/04/26 05:07:17;;;;;;;2.33;2.13;;;;;;;;;;5051594;28;20640;-54
2023/04/26 05:09:43;;;;;;;3.23;2.47;;;;;;;;;;5055836;28;20274;-54
2023/04/26 05:12:09;;;;;;;3.33;2.30;;;;;;;;;;5057884;28;21106;-54
2023/04/26 05:14:36;;;;;;;2.37;2.17;;;;;;;;;;5056608;28;20191;-54
2023/04/26 05:17:02;;;;;;;2.40;1.97;;;;;;;;;;5056417;28;20188;-55
2023/04/26 05:19:29;;;;;;;4.67;2.77;;;;;;;;;;5057831;28;21202;-55
2023/04/26 05:21:56;;;;;;;3.17;2.50;;;;;;;;;;5057423;28;20705;-55
2023/04/26 05:24:23;;;;;;;6.83;3.60;;;;;;;;;;5053140;28;20699;-55
2023/04/26 05:26:49;;;;;;;4.90;3.63;;;;;;;;;;5057367;28;20192;-55
2023/04/26 05:29:15;;;;;;;4.57;3.30;;;;;;;;;;5056589;28;20242;-54
2023/04/26 05:31:41;;;;;;;5.03;3.30;;;;;;;;;;5052993;28;20267;-54
2023/04/26 05:34:07;;;;;;;4.77;3.47;;;;;;;;;;5051101;28;20184;-55
2023/04/26 05:36:33;;;;;;;4.50;3.43;;;;;;;;;;5027682;28;20700;-55
2023/04/26 05:38:59;;;;;;;4.67;3.13;;;;;;;;;;5053539;28;21903;-54
2023/04/26 05:41:26;;;;;;;6.10;3.70;;;;;;;;;;5057497;28;20181;-55
2023/04/26 05:43:52;;;;;;;6.30;3.70;;;;;;;;;;5059112;28;20636;-55
2023/04/26 05:46:18;;;;;;;8.17;4.00;;;;;;;;;;5061930;28;20181;-54
2023/04/26 05:48:45;;;;;;;5.07;4.00;;;;;;;;;;5064382;28;20189;-55
2023/04/26 05:51:11;;;;;;;6.37;3.83;;;;;;;;;;5070744;28;20188;-55
2023/04/26 05:53:37;;;;;;;5.30;3.73;;;;;;;;;;5069294;28;20191;-55
2023/04/26 05:56:03;;;;;;;4.10;3.53;;;;;;;;;;5066395;28;20238;-55
2023/04/26 05:58:29;;;;;;;5.27;3.87;;;;;;;;;;5068145;28;20644;-55
2023/04/26 06:00:56;;;;;;;7.17;4.33;;;;;;;;;;5065670;28;20258;-57
2023/04/26 06:03:23;;;;;;;10.23;5.70;;;;;;;;;;5063791;28;20181;-57
2023/04/26 06:05:49;;;;;;;8.60;5.40;;;;;;;;;;5066459;28;20173;-56
2023/04/26 06:08:15;;;;;;;8.70;6.17;;;;;;;;;;5064624;28;20250;-55
2023/04/26 06:10:41;;;;;;;9.87;6.33;;;;;;;;;;5067930;28;20196;-56
2023/04/26 06:13:07;;;;;;;7.27;5.70;;;;;;;;;;5060463;28;20200;-55
2023/04/26 06:15:33;;;;;;;7.63;6.10;;;;;;;;;;5070107;28;20188;-55
2023/04/26 06:17:59;;;;;;;11.70;6.03;;;;;;;;;;5065342;28;20663;-55
2023/04/26 06:20:26;;;;;;;8.17;6.00;;;;;;;;;;5066384;28;20185;-56
2023/04/26 06:22:53;;;;;;;12.80;6.73;;;;;;;;;;5068408;28;20631;-55
2023/04/26 06:25:19;;;;;;;5.83;4.97;;;;;;;;;;5069817;28;20212;-56
2023/04/26 06:27:45;;;;;;;7.63;5.03;;;;;;;;;;5069826;28;20742;-56
2023/04/26 06:30:13;;;;;;;7.40;4.70;;;;;;;;;;5067011;28;20205;-56
2023/04/26 06:32:43;;;;;;;9.03;5.43;;;;;;;;;;5064805;28;20187;-56
2023/04/26 06:35:09;;;;;;;5.63;5.03;;;;;;;;;;5066371;28;20671;-56
2023/04/26 06:37:37;;;;;;;7.93;5.80;;;;;;;;;;5068165;28;20164;-56
2023/04/26 06:40:06;;;;;;;8.97;5.73;;;;;;;;;;5064303;28;20716;-56
2023/04/26 06:42:32;;;;;;;8.60;6.20;;;;;;;;;;5062663;28;20246;-56
2023/04/26 06:44:59;;;;;;;6.50;5.20;;;;;;;;;;5060477;28;20175;-56
2023/04/26 06:47:25;;;;;;;6.83;5.57;;;;;;;;;;5070015;28;20587;-56
2023/04/26 06:49:51;;;;;;;6.87;5.23;;;;;;;;;;5059803;28;20482;-56
2023/04/26 06:52:17;;;;;;;6.73;4.73;;;;;;;;;;5061431;28;20210;-56
2023/04/26 06:54:43;;;;;;;6.90;4.87;;;;;;;;;;5064720;28;20175;-56
2023/04/26 06:57:10;;;;;;;7.60;5.63;;;;;;;;;;5062037;28;20645;-56
2023/04/26 06:59:36;;;;;;;8.30;5.60;;;;;;;;;;5060584;28;20341;-56
2023/04/26 07:02:02;;;;;;;8.60;5.73;;;;;;;;;;5059677;28;20177;-56
2023/04/26 07:04:28;;;;;;;7.13;5.57;;;;;;;;;;5066884;28;20168;-56
2023/04/26 07:06:55;;;;;;;9.87;5.37;;;;;;;;;;5070879;28;20188;-56
2023/04/26 07:09:22;;;;;;;8.67;5.87;;;;;;;;;;5071681;28;20179;-56
2023/04/26 07:11:48;;;;;;;8.27;6.17;;;;;;;;;;5071972;28;20227;-56
2023/04/26 07:14:14;;;;;;;8.40;6.60;;;;;;;;;;5070579;28;20200;-56
2023/04/26 07:16:41;;;;;;;8.70;6.17;;;;;;;;;;5071783;28;20537;-56
2023/04/26 07:19:07;;;;;;;10.00;5.77;;;;;;;;;;5069096;28;20262;-56
2023/04/26 07:21:33;;;;;;;7.17;5.37;;;;;;;;;;5071472;28;20593;-55
2023/04/26 07:23:59;;;;;;;8.63;5.83;;;;;;;;;;5070645;28;20318;-55
2023/04/26 07:26:26;;;;;;;10.83;5.93;;;;;;;;;;5071129;28;20181;-55
2023/04/26 07:28:52;;;;;;;9.07;5.60;;;;;;;;;;5070872;28;20161;-56
2023/04/26 07:31:18;;;;;;;9.97;6.33;;;;;;;;;;5070526;28;20165;-56
2023/04/26 07:33:45;;;;;;;8.30;5.67;;;;;;;;;;5069743;28;20208;-55
2023/04/26 07:36:11;;;;;;;8.80;5.23;;;;;;;;;;5070902;28;20168;-55
2023/04/26 07:38:37;;;;;;;8.33;5.67;;;;;;;;;;5070889;28;20694;-55
2023/04/26 07:41:03;;;;;;;7.93;5.67;;;;;;;;;;5070991;28;20635;-55
2023/04/26 07:43:30;;;;;;;10.47;5.43;;;;;;;;;;5062788;28;20184;-55
2023/04/26 07:46:03;;;;;;;8.90;6.57;;;;;;;;;;5049944;28;20445;-55
2023/04/26 07:48:29;;;;;;;7.40;5.60;;;;;;;;;;5049420;28;20640;-55
2023/04/26 07:50:56;;;;;;;7.13;5.40;;;;;;;;;;5064348;28;20259;-55
2023/04/26 07:53:22;;;;;;;7.87;5.43;;;;;;;;;;5070059;28;20184;-55
2023/04/26 07:55:50;;;;;;;6.50;5.37;;;;;;;;;;5070671;28;20157;-55
2023/04/26 07:58:18;;;;;;;7.97;5.87;;;;;;;;;;5069961;28;20196;-55
2023/04/26 08:00:44;;;;;;;6.27;4.90;;;;;;;;;;5070440;28;20191;-55
2023/04/26 08:03:11;;;;;;;8.67;4.90;;;;;;;;;;5069494;28;20172;-54
2023/04/26 08:05:37;;;;;;;6.47;4.80;;;;;;;;;;5070694;28;20204;-55
2023/04/26 08:08:04;;;;;;;6.67;5.17;;;;;;;;;;5069966;28;20627;-55
2023/04/26 08:10:30;;;;;;;6.33;5.00;;;;;;;;;;5070638;28;20521;-54
2023/04/26 08:12:56;;;;;;;5.87;4.37;;;;;;;;;;5069819;28;20317;-55
2023/04/26 08:15:22;;;;;;;7.13;5.23;;;;;;;;;;5069703;28;20188;-55
2023/04/26 08:17:52;;;;;;;7.33;5.47;;;;;;;;;;5070087;28;20157;-55
2023/04/26 08:20:18;;;;;;;5.37;4.57;;;;;;;;;;5068903;28;20172;-55
2023/04/26 08:22:45;;;;;;;7.90;5.10;;;;;;;;;;5070489;28;20165;-55
2023/04/26 08:25:12;;;;;;;7.07;5.33;;;;;;;;;;5069666;28;20239;-55
2023/04/26 08:27:38;;;;;;;8.37;5.40;;;;;;;;;;5070264;28;20185;-55
2023/04/26 08:30:05;;;;;;;7.07;4.93;;;;;;;;;;5051344;28;20230;-55
2023/04/26 08:32:32;;;;;;;8.10;4.87;;;;;;;;;;5069850;28;20180;-54
2023/04/26 08:34:59;;;;;;;4.17;3.60;;;;;;;;;;5068865;28;20171;-55
2023/04/26 08:37:25;;;;;;;6.20;4.53;;;;;;;;;;5069585;28;20226;-55
2023/04/26 08:39:52;;;;;;;8.47;4.80;;;;;;;;;;5069668;28;20196;-55
2023/04/26 08:42:19;;;;;;;7.60;3.90;;;;;;;;;;5069006;28;20210;-55
2023/04/26 08:44:46;;;;;;;7.87;4.70;;;;;;;;;;5063394;28;20184;-55
2023/04/26 08:47:18;;;;;;;6.20;3.70;;;;;;;;;;5069981;28;20616;-54
2023/04/26 08:49:52;;;;;;;5.43;4.03;;;;;;;;;;5068538;28;20184;-55
2023/04/26 08:52:22;;;;;;;5.47;3.77;;;;;;;;;;5069561;28;20183;-55
2023/04/26 08:54:49;;;;;;;4.80;2.90;;;;;;;;;;5069606;28;20784;-55
2023/04/26 08:57:15;;;;;;;6.93;3.20;;;;;;;;;;5070089;28;20430;-55
2023/04/26 08:59:45;;;;;;;3.77;2.80;;;;;;;;;;5069423;28;20192;-55
2023/04/26 09:02:17;;;;;;;5.53;3.00;;;;;;;;;;5069852;28;20538;-55
2023/04/26 09:04:45;;;;;;;7.07;3.70;;;;;;;;;;5067835;28;20234;-56
2023/04/26 09:07:14;;;;;;;3.93;3.23;;;;;;;;;;5070001;28;20156;-55
2023/04/26 09:09:45;;;;;;;4.37;2.97;;;;;;;;;;5069165;28;20604;-55
2023/04/26 09:12:11;;;;;;;3.97;3.33;;;;;;;;;;5049861;28;20738;-55
2023/04/26 09:14:38;;;;;;;5.17;3.67;;;;;;;;;;5048928;28;20214;-55
2023/04/26 09:17:04;;;;;;;5.33;3.00;;;;;;;;;;5065369;28;20180;-55
2023/04/26 09:19:38;;;;;;;3.00;2.60;;;;;;;;;;5067963;28;20201;-55
2023/04/26 09:22:05;;;;;;;3.87;2.53;;;;;;;;;;5069325;28;20176;-55
2023/04/26 09:24:49;;;;;;;3.53;2.90;;;;;;;;;;5068982;28;20220;-55
2023/04/26 09:27:15;;;;;;;5.73;3.00;;;;;;;;;;5069918;28;20184;-55
2023/04/26 09:29:57;;;;;;;4.43;3.13;;;;;;;;;;5068897;28;20513;-55
2023/04/26 09:32:24;;;;;;;5.40;3.00;;;;;;;;;;5069648;28;20172;-56
2023/04/26 09:34:50;;;;;;;5.50;2.93;;;;;;;;;;5068054;28;20532;-55
2023/04/26 09:37:17;;;;;;;4.17;2.80;;;;;;;;;;5069638;28;20168;-56
2023/04/26 09:39:44;;;;;;;3.10;2.90;;;;;;;;;;5068990;28;20555;-56
2023/04/26 09:42:10;;;;;;;7.20;2.97;;;;;;;;;;5069558;28;20153;-56
2023/04/26 09:44:37;;;;;;;3.37;2.80;;;;;;;;;;5051960;28;20324;-56
2023/04/26 09:47:08;;;;;;;4.67;2.63;;;;;;;;;;5049253;28;20180;-55
2023/04/26 09:49:49;;;;;;;5.57;2.83;;;;;;;;;;5063125;28;20188;-56
2023/04/26 09:52:16;;;;;;;2.83;2.57;;;;;;;;;;5069251;28;20212;-56
2023/04/26 09:54:47;;;;;;;4.70;2.43;;;;;;;;;;5071433;28;20173;-55
2023/04/26 09:57:14;;;;;;;4.30;2.80;;;;;;;;;;5072875;28;20196;-56
2023/04/26 09:59:45;;;;;;;7.10;2.97;;;;;;;;;;5072676;28;20534;-55
2023/04/26 10:02:29;;;;;;;4.70;3.20;;;;;;;;;;5073275;28;20171;-56
2023/04/26 10:04:58;;;;;;;2.90;2.60;;;;;;;;;;5071448;28;20165;-55
2023/04/26 10:07:26;;;;;;;5.77;3.57;;;;;;;;;;5072932;28;20176;-56
2023/04/26 10:09:53;;;;;;;8.33;3.47;;;;;;;;;;5072282;28;20161;-56
2023/04/26 10:12:20;;;;;;;4.30;2.80;;;;;;;;;;5072359;28;20200;-56
2023/04/26 10:14:46;;;;;;;3.87;2.60;;;;;;;;;;5072029;28;20263;-56
2023/04/26 10:17:13;;;;;;;3.70;3.00;;;;;;;;;;5055388;28;20239;-56
2023/04/26 10:19:42;;;;;;;4.90;2.60;;;;;;;;;;5051433;28;20254;-56
2023/04/26 10:22:11;;;;;;;3.97;2.80;;;;;;;;;;5066793;28;20187;-56
2023/04/26 10:24:43;;;;;;;3.43;2.53;;;;;;;;;;5072111;28;20228;-56
2023/04/26 10:27:10;;;;;;;3.17;2.87;;;;;;;;;;5072121;28;20237;-56
2023/04/26 10:29:55;;;;;;;4.47;2.67;;;;;;;;;;5071475;28;20184;-57
2023/04/26 10:32:22;;;;;;;8.37;3.17;;;;;;;;;;5054547;28;20296;-56
2023/04/26 10:35:07;;;;;;;5.80;2.60;;;;;;;;;;5071032;28;20179;-57
2023/04/26 10:37:34;;;;;;;4.63;2.83;;;;;;;;;;5072210;28;20255;-56
2023/04/26 10:40:19;;;;;;;3.63;2.37;;;;;;;;;;5071816;28;20199;-57
2023/04/26 10:42:46;;;;;;;5.47;2.63;;;;;;;;;;5070651;28;20169;-57
2023/04/26 10:45:26;;;;;;;5.80;2.30;;;;;;;;;;5052151;28;20197;-56
2023/04/26 10:48:12;;;;;;;3.83;2.50;;;;;;;;;;5070750;28;20632;-56
2023/04/26 10:50:56;;;;;;;4.00;2.30;;;;;;;;;;5071884;28;20211;-57
2023/04/26 10:53:23;;;;;;;4.97;2.57;;;;;;;;;;5071476;28;20165;-56
2023/04/26 10:55:50;;;;;;;4.50;2.50;;;;;;;;;;5072178;28;20176;-57
2023/04/26 10:58:29;;;;;;;4.23;2.67;;;;;;;;;;5071335;28;20200;-57
2023/04/26 11:01:05;;;;;;;3.83;2.63;;;;;;;;;;5071986;28;20601;-57
2023/04/26 11:03:32;;;;;;;3.27;2.40;;;;;;;;;;5070415;28;20253;-57
2023/04/26 11:05:58;;;;;;;2.40;2.17;;;;;;;;;;5070949;28;20177;-57
2023/04/26 11:08:30;;;;;;;3.20;2.20;;;;;;;;;;5071329;28;20234;-56
2023/04/26 11:11:02;;;;;;;2.47;2.03;;;;;;;;;;5071390;28;20148;-56
2023/04/26 11:13:37;;;;;;;2.53;1.90;;;;;;;;;;5071508;28;20172;-56
2023/04/26 11:16:05;;;;;;;3.57;2.23;;;;;;;;;;5063866;28;20620;-56
2023/04/26 11:18:32;;;;;;;2.83;2.40;;;;;;;;;;5063631;28;20231;-56
2023/04/26 11:20:58;;;;;;;3.67;2.80;;;;;;;;;;5071319;28;20176;-56
2023/04/26 11:23:25;;;;;;;4.67;2.30;;;;;;;;;;5070523;28;20238;-56
2023/04/26 11:25:53;;;;;;;5.07;2.73;;;;;;;;;;5071423;28;20644;-56
2023/04/26 11:28:22;;;;;;;2.57;2.20;;;;;;;;;;5071067;28;20210;-56
2023/04/26 11:30:49;;;;;;;3.20;2.17;;;;;;;;;;5071544;28;20238;-56
2023/04/26 11:33:21;;;;;;;3.50;2.07;;;;;;;;;;5070177;28;20417;-56
2023/04/26 11:35:47;;;;;;;2.37;1.80;;;;;;;;;;5053318;28;20200;-57
2023/04/26 11:38:14;;;;;;;3.43;2.13;;;;;;;;;;5069758;28;20253;-56
2023/04/26 11:40:40;;;;;;;5.07;2.13;;;;;;;;;;5071675;28;20246;-56
2023/04/26 11:43:07;;;;;;;3.63;1.87;;;;;;;;;;5049260;28;20723;-56
2023/04/26 11:45:35;;;;;;;4.83;2.20;;;;;;;;;;5069729;28;20203;-56
2023/04/26 11:48:06;;;;;;;3.50;1.87;;;;;;;;;;5069570;28;20195;-56
2023/04/26 11:50:33;;;;;;;2.93;2.00;;;;;;;;;;5070834;28;20168;-57
2023/04/26 11:53:00;;;;;;;4.47;2.50;;;;;;;;;;5070212;28;20173;-56
2023/04/26 11:55:34;;;;;;;3.57;2.03;;;;;;;;;;5070346;28;20526;-57
2023/04/26 11:58:00;;;;;;;2.67;2.03;;;;;;;;;;5070589;28;20164;-56
2023/04/26 12:00:27;;;;;;;3.50;2.17;;;;;;;;;;5067190;28;20195;-56
2023/04/26 12:02:55;;;;;;;3.53;1.80;;;;;;;;;;5069428;28;20238;-56
2023/04/26 12:05:26;;;;;;;2.93;1.87;;;;;;;;;;5050791;28;20170;-57
2023/04/26 12:07:56;;;;;;;2.50;2.20;;;;;;;;;;5056271;28;20169;-57
2023/04/26 12:10:28;;;;;;;2.40;2.20;;;;;;;;;;5070414;28;20153;-57
2023/04/26 12:12:55;;;;;;;3.33;1.60;;;;;;;;;;5069800;28;20196;-55
2023/04/26 12:15:39;;;;;;;2.50;1.80;;;;;;;;;;5068187;28;20564;-56
2023/04/26 12:18:10;;;;;;;3.00;2.20;;;;;;;;;;5048695;28;20165;-56
2023/04/26 12:20:37;;;;;;;2.27;2.07;;;;;;;;;;5044758;28;20648;-56
2023/04/26 12:23:10;;;;;;;3.50;2.10;;;;;;;;;;5063937;28;20180;-55
2023/04/26 12:25:41;;;;;;;3.73;2.40;;;;;;;;;;5067516;28;20211;-56
2023/04/26 12:28:12;;;;;;;3.03;2.30;;;;;;;;;;5068714;28;20180;-56
2023/04/26 12:30:39;;;;;;;3.10;2.30;;;;;;;;;;5062054;28;20180;-57
2023/04/26 12:33:06;;;;;;;3.40;2.27;;;;;;;;;;5063029;28;20539;-56
2023/04/26 12:35:32;;;;;;;2.27;2.07;;;;;;;;;;5070296;28;20192;-56
2023/04/26 12:38:00;;;;;;;3.83;1.93;;;;;;;;;;5061938;28;20649;-57
2023/04/26 12:40:30;;;;;;;3.27;2.40;;;;;;;;;;5070034;28;20259;-57
2023/04/26 12:43:00;;;;;;;4.03;2.30;;;;;;;;;;5069679;28;20647;-56
2023/04/26 12:45:27;;;;;;;3.57;2.03;;;;;;;;;;5069649;28;20181;-57
2023/04/26 12:47:55;;;;;;;2.77;2.00;;;;;;;;;;5069442;28;20161;-57
2023/04/26 12:50:21;;;;;;;2.57;2.00;;;;;;;;;;5069789;28;20164;-57
2023/04/26 12:52:47;;;;;;;2.20;2.00;;;;;;;;;;5069644;28;20577;-57
2023/04/26 12:55:17;;;;;;;2.63;1.90;;;;;;;;;;5069103;28;20191;-57
2023/04/26 12:57:44;;;;;;;4.40;2.13;;;;;;;;;;5070085;28;20173;-58
2023/04/26 13:00:11;;;;;;;3.80;2.13;;;;;;;;;;5069469;28;20196;-58
2023/04/26 13:02:38;;;;;;;3.63;2.63;;;;;;;;;;5069448;28;20180;-58
2023/04/26 13:05:05;;;;;;;2.17;1.77;;;;;;;;;;5066490;28;20175;-58
2023/04/26 13:07:35;;;;;;;4.27;2.00;;;;;;;;;;5064009;28;20188;-58
2023/04/26 13:10:01;;;;;;;2.73;1.80;;;;;;;;;;5067488;28;20187;-58
2023/04/26 13:12:28;;;;;;;3.63;2.20;;;;;;;;;;5061840;28;20209;-57
2023/04/26 13:14:54;;;;;;;3.27;2.30;;;;;;;;;;5065400;28;20188;-57
2023/04/26 13:17:21;;;;;;;4.90;2.73;;;;;;;;;;5051007;28;20185;-57
2023/04/26 13:19:47;;;;;;;2.43;1.90;;;;;;;;;;5057952;28;20196;-58
2023/04/26 13:22:13;;;;;;;2.00;1.80;;;;;;;;;;5064625;28;20623;-57
2023/04/26 13:24:40;;;;;;;2.73;2.03;;;;;;;;;;5068852;28;20220;-57
2023/04/26 13:27:06;;;;;;;2.50;2.00;;;;;;;;;;5069219;28;20628;-58
2023/04/26 13:29:34;;;;;;;2.30;1.90;;;;;;;;;;5068121;28;20192;-58
2023/04/26 13:32:01;;;;;;;3.00;2.30;;;;;;;;;;5072505;28;20172;-58
2023/04/26 13:34:27;;;;;;;3.87;2.30;;;;;;;;;;5070934;28;20169;-58
2023/04/26 13:36:57;;;;;;;2.40;2.20;;;;;;;;;;5072926;28;20195;-57
2023/04/26 13:39:24;;;;;;;3.33;2.50;;;;;;;;;;5072171;28;20932;-57
2023/04/26 13:41:51;;;;;;;3.03;2.70;;;;;;;;;;5069976;28;20585;-57
2023/04/26 13:44:18;;;;;;;2.53;2.33;;;;;;;;;;5054888;28;20671;-57
2023/04/26 13:46:45;;;;;;;3.00;2.13;;;;;;;;;;5051947;28;20177;-57
2023/04/26 13:49:11;;;;;;;3.23;2.40;;;;;;;;;;5071642;28;20272;-56
2023/04/26 13:51:37;;;;;;;5.10;2.97;;;;;;;;;;5070521;28;20199;-56
2023/04/26 13:54:04;;;;;;;3.50;2.57;;;;;;;;;;5070278;28;20192;-56
2023/04/26 13:56:31;;;;;;;2.20;2.00;;;;;;;;;;5067685;28;20277;-56
2023/04/26 13:59:00;;;;;;;2.63;1.90;;;;;;;;;;5071808;28;20208;-55
2023/04/26 14:01:27;;;;;;;3.17;2.63;;;;;;;;;;5070423;28;20178;-56
2023/04/26 14:03:53;;;;;;;2.50;2.30;;;;;;;;;;5060819;28;20188;-56
2023/04/26 14:06:20;;;;;;;3.50;2.67;;;;;;;;;;5070153;28;20186;-56
2023/04/26 14:08:46;;;;;;;2.80;2.30;;;;;;;;;;5072310;28;20683;-56
2023/04/26 14:11:13;;;;;;;4.10;1.97;;;;;;;;;;5062324;28;20252;-55
2023/04/26 14:13:39;;;;;;;3.73;2.77;;;;;;;;;;5063030;28;20181;-54
2023/04/26 14:16:05;;;;;;;3.93;2.13;;;;;;;;;;5057061;28;20209;-55
2023/04/26 14:18:31;;;;;;;2.90;2.30;;;;;;;;;;5059169;28;20206;-55
2023/04/26 14:20:58;;;;;;;4.80;2.40;;;;;;;;;;5064783;28;20257;-55
2023/04/26 14:23:24;;;;;;;2.80;2.60;;;;;;;;;;5067127;28;20247;-56
2023/04/26 14:25:51;;;;;;;4.17;2.83;;;;;;;;;;5063970;28;20176;-56
2023/04/26 14:28:17;;;;;;;3.63;2.40;;;;;;;;;;5058713;28;20267;-56
2023/04/26 14:30:45;;;;;;;3.30;2.50;;;;;;;;;;5061292;28;20605;-55
2023/04/26 14:33:11;;;;;;;3.57;2.20;;;;;;;;;;5070826;28;20176;-56
2023/04/26 14:35:38;;;;;;;3.13;2.53;;;;;;;;;;5063924;28;20172;-56
2023/04/26 14:38:05;;;;;;;3.03;2.73;;;;;;;;;;5077182;28;20692;-56
2023/04/26 14:40:32;;;;;;;3.87;2.67;;;;;;;;;;5054715;28;20173;-56
2023/04/26 14:42:58;;;;;;;3.30;2.60;;;;;;;;;;5070193;28;20175;-56
2023/04/26 14:48:42;;;;;;;2.73;2.10;;;;;;;;;;5066166;28;20175;-55